sensor_id;sensor_type;location;lat;lon;timestamp;pressure;altitude;pressure_sealevel;temperature;humidity
80382;BME280;69692;55.820;37.490;2023-12-07T00:01:57;101672.91;;;-6.24;67.14
80382;BME280;69692;55.820;37.490;2023-12-07T00:04:23;101667.88;;;-6.29;67.58
80382;BME280;69692;55.820;37.490;2023-12-07T00:06:48;101670.41;;;-6.27;67.89
80382;BME280;69692;55.820;37.490;2023-12-07T00:09:14;101676.56;;;-6.28;67.53
80382;BME280;69692;55.820;37.490;2023-12-07T00:11:40;101677.91;;;-6.20;67.68
80382;BME280;69692;55.820;37.490;2023-12-07T00:14:06;101676.78;;;-6.33;67.43
80382;BME280;69692;55.820;37.490;2023-12-07T00:16:32;101674.53;;;-6.59;67.75
80382;BME280;69692;55.820;37.490;2023-12-07T00:18:58;101680.56;;;-6.76;68.70
80382;BME280;69692;55.820;37.490;2023-12-07T00:21:24;101683.25;;;-6.78;68.72
80382;BME280;69692;55.820;37.490;2023-12-07T00:23:49;101679.47;;;-6.72;69.08
80382;BME280;69692;55.820;37.490;2023-12-07T00:26:15;101682.38;;;-6.59;68.90
80382;BME280;69692;55.820;37.490;2023-12-07T00:28:41;101687.00;;;-6.65;68.57
80382;BME280;69692;55.820;37.490;2023-12-07T00:31:07;101682.72;;;-6.86;68.86
80382;BME280;69692;55.820;37.490;2023-12-07T00:33:34;101684.00;;;-6.76;69.56
80382;BME280;69692;55.820;37.490;2023-12-07T00:35:59;101676.38;;;-6.62;68.98
80382;BME280;69692;55.820;37.490;2023-12-07T00:38:25;101691.53;;;-6.68;69.09
80382;BME280;69692;55.820;37.490;2023-12-07T00:40:51;101692.09;;;-6.62;69.17
80382;BME280;69692;55.820;37.490;2023-12-07T00:43:17;101686.50;;;-6.54;68.58
80382;BME280;69692;55.820;37.490;2023-12-07T00:45:43;101688.22;;;-6.53;68.28
80382;BME280;69692;55.820;37.490;2023-12-07T00:48:09;101689.38;;;-6.41;68.63
80382;BME280;69692;55.820;37.490;2023-12-07T00:50:34;101685.66;;;-6.36;68.51
80382;BME280;69692;55.820;37.490;2023-12-07T00:53:00;101683.38;;;-6.43;68.12
80382;BME280;69692;55.820;37.490;2023-12-07T00:55:26;101689.47;;;-6.43;68.17
80382;BME280;69692;55.820;37.490;2023-12-07T00:57:52;101697.25;;;-6.41;68.28
80382;BME280;69692;55.820;37.490;2023-12-07T01:00:18;101698.75;;;-6.36;68.03
80382;BME280;69692;55.820;37.490;2023-12-07T01:02:44;101689.88;;;-6.33;68.17
80382;BME280;69692;55.820;37.490;2023-12-07T01:05:10;101702.28;;;-6.37;68.09
80382;BME280;69692;55.820;37.490;2023-12-07T01:07:36;101701.50;;;-6.57;68.29
80382;BME280;69692;55.820;37.490;2023-12-07T01:10:02;101702.47;;;-6.60;68.56
80382;BME280;69692;55.820;37.490;2023-12-07T01:12:29;101696.13;;;-6.54;68.54
80382;BME280;69692;55.820;37.490;2023-12-07T01:14:55;101694.06;;;-6.48;68.43
80382;BME280;69692;55.820;37.490;2023-12-07T01:17:21;101701.50;;;-6.39;67.86
80382;BME280;69692;55.820;37.490;2023-12-07T01:19:47;101700.59;;;-6.38;67.61
80382;BME280;69692;55.820;37.490;2023-12-07T01:22:13;101698.81;;;-6.37;67.58
80382;BME280;69692;55.820;37.490;2023-12-07T01:24:38;101701.78;;;-6.45;67.63
80382;BME280;69692;55.820;37.490;2023-12-07T01:27:04;101711.41;;;-6.45;67.61
80382;BME280;69692;55.820;37.490;2023-12-07T01:29:30;101711.84;;;-6.54;67.54
80382;BME280;69692;55.820;37.490;2023-12-07T01:31:56;101714.31;;;-6.51;68.05
80382;BME280;69692;55.820;37.490;2023-12-07T01:34:22;101713.25;;;-6.47;67.35
80382;BME280;69692;55.820;37.490;2023-12-07T01:36:48;101713.81;;;-6.59;67.22
80382;BME280;69692;55.820;37.490;2023-12-07T01:39:13;101722.56;;;-6.61;67.62
80382;BME280;69692;55.820;37.490;2023-12-07T01:41:40;101731.13;;;-6.76;67.89
80382;BME280;69692;55.820;37.490;2023-12-07T01:44:06;101733.28;;;-6.85;68.04
80382;BME280;69692;55.820;37.490;2023-12-07T01:46:32;101730.09;;;-6.92;68.18
80382;BME280;69692;55.820;37.490;2023-12-07T01:48:59;101735.72;;;-6.81;67.94
80382;BME280;69692;55.820;37.490;2023-12-07T01:51:25;101733.03;;;-6.79;68.10
80382;BME280;69692;55.820;37.490;2023-12-07T01:53:52;101742.28;;;-6.72;67.84
80382;BME280;69692;55.820;37.490;2023-12-07T01:56:18;101737.91;;;-6.72;67.49
80382;BME280;69692;55.820;37.490;2023-12-07T01:58:45;101739.34;;;-6.65;67.71
80382;BME280;69692;55.820;37.490;2023-12-07T02:01:11;101737.81;;;-6.50;67.48
80382;BME280;69692;55.820;37.490;2023-12-07T02:03:41;101744.38;;;-6.41;67.26
80382;BME280;69692;55.820;37.490;2023-12-07T02:06:08;101738.50;;;-6.46;67.03
80382;BME280;69692;55.820;37.490;2023-12-07T02:08:35;101734.66;;;-6.58;66.98
80382;BME280;69692;55.820;37.490;2023-12-07T02:11:01;101737.28;;;-6.58;67.01
80382;BME280;69692;55.820;37.490;2023-12-07T02:13:28;101741.88;;;-6.63;66.78
80382;BME280;69692;55.820;37.490;2023-12-07T02:15:55;101753.00;;;-6.58;67.51
80382;BME280;69692;55.820;37.490;2023-12-07T02:18:35;101754.97;;;-6.63;67.61
80382;BME280;69692;55.820;37.490;2023-12-07T02:21:17;101756.75;;;-6.64;67.17
80382;BME280;69692;55.820;37.490;2023-12-07T02:23:44;101751.66;;;-6.67;67.33
80382;BME280;69692;55.820;37.490;2023-12-07T02:26:51;101763.38;;;-6.75;67.66
80382;BME280;69692;55.820;37.490;2023-12-07T02:29:16;101765.50;;;-6.83;67.88
80382;BME280;69692;55.820;37.490;2023-12-07T02:31:43;101766.09;;;-6.97;68.07
80382;BME280;69692;55.820;37.490;2023-12-07T02:34:09;101765.03;;;-6.93;68.02
80382;BME280;69692;55.820;37.490;2023-12-07T02:36:38;101751.28;;;-7.18;68.10
80382;BME280;69692;55.820;37.490;2023-12-07T02:39:05;101766.47;;;-7.27;68.42
80382;BME280;69692;55.820;37.490;2023-12-07T02:41:32;101770.66;;;-7.23;68.82
80382;BME280;69692;55.820;37.490;2023-12-07T02:43:59;101765.50;;;-7.24;68.75
80382;BME280;69692;55.820;37.490;2023-12-07T02:46:26;101765.91;;;-7.13;68.88
80382;BME280;69692;55.820;37.490;2023-12-07T02:48:52;101760.06;;;-7.19;68.32
80382;BME280;69692;55.820;37.490;2023-12-07T02:51:18;101759.00;;;-7.15;68.40
80382;BME280;69692;55.820;37.490;2023-12-07T02:53:44;101769.50;;;-7.58;69.27
80382;BME280;69692;55.820;37.490;2023-12-07T02:56:10;101765.91;;;-7.55;69.04
80382;BME280;69692;55.820;37.490;2023-12-07T02:58:36;101759.44;;;-7.46;69.15
80382;BME280;69692;55.820;37.490;2023-12-07T03:01:02;101765.16;;;-7.37;69.15
80382;BME280;69692;55.820;37.490;2023-12-07T03:03:28;101776.03;;;-7.26;68.54
80382;BME280;69692;55.820;37.490;2023-12-07T03:05:53;101780.88;;;-7.59;68.10
80382;BME280;69692;55.820;37.490;2023-12-07T03:08:19;101777.50;;;-7.62;69.61
80382;BME280;69692;55.820;37.490;2023-12-07T03:10:45;101781.03;;;-7.63;69.55
80382;BME280;69692;55.820;37.490;2023-12-07T03:13:11;101781.91;;;-7.63;69.03
80382;BME280;69692;55.820;37.490;2023-12-07T03:15:37;101786.28;;;-7.63;68.93
80382;BME280;69692;55.820;37.490;2023-12-07T03:18:03;101791.69;;;-7.68;69.62
80382;BME280;69692;55.820;37.490;2023-12-07T03:20:29;101794.78;;;-7.80;69.56
80382;BME280;69692;55.820;37.490;2023-12-07T03:22:54;101800.84;;;-7.79;69.24
80382;BME280;69692;55.820;37.490;2023-12-07T03:25:20;101807.66;;;-7.97;70.26
80382;BME280;69692;55.820;37.490;2023-12-07T03:27:47;101806.28;;;-7.84;69.52
80382;BME280;69692;55.820;37.490;2023-12-07T03:30:13;101804.13;;;-7.74;70.13
80382;BME280;69692;55.820;37.490;2023-12-07T03:32:39;101796.59;;;-7.60;69.68
80382;BME280;69692;55.820;37.490;2023-12-07T03:35:05;101805.53;;;-7.66;69.26
80382;BME280;69692;55.820;37.490;2023-12-07T03:37:31;101817.34;;;-7.56;68.66
80382;BME280;69692;55.820;37.490;2023-12-07T03:39:57;101811.09;;;-7.73;69.11
80382;BME280;69692;55.820;37.490;2023-12-07T03:42:23;101816.78;;;-7.86;69.35
80382;BME280;69692;55.820;37.490;2023-12-07T03:44:49;101815.63;;;-7.78;68.73
80382;BME280;69692;55.820;37.490;2023-12-07T03:47:14;101819.41;;;-7.86;69.23
80382;BME280;69692;55.820;37.490;2023-12-07T03:49:40;101825.53;;;-7.87;69.29
80382;BME280;69692;55.820;37.490;2023-12-07T03:52:07;101824.50;;;-7.83;69.46
80382;BME280;69692;55.820;37.490;2023-12-07T03:54:33;101823.00;;;-7.90;69.04
80382;BME280;69692;55.820;37.490;2023-12-07T03:56:59;101819.94;;;-7.99;70.01
80382;BME280;69692;55.820;37.490;2023-12-07T03:59:26;101825.41;;;-7.84;70.08
80382;BME280;69692;55.820;37.490;2023-12-07T04:01:52;101816.25;;;-7.72;69.67
80382;BME280;69692;55.820;37.490;2023-12-07T04:04:17;101826.25;;;-7.61;68.29
80382;BME280;69692;55.820;37.490;2023-12-07T04:06:43;101825.84;;;-7.51;68.60
80382;BME280;69692;55.820;37.490;2023-12-07T04:09:09;101822.94;;;-7.43;68.19
80382;BME280;69692;55.820;37.490;2023-12-07T04:11:35;101834.56;;;-7.30;67.97
80382;BME280;69692;55.820;37.490;2023-12-07T04:14:01;101831.59;;;-7.21;68.03
80382;BME280;69692;55.820;37.490;2023-12-07T04:16:27;101827.06;;;-7.17;66.90
80382;BME280;69692;55.820;37.490;2023-12-07T04:18:53;101826.50;;;-7.24;66.60
80382;BME280;69692;55.820;37.490;2023-12-07T04:21:19;101823.88;;;-7.24;67.28
80382;BME280;69692;55.820;37.490;2023-12-07T04:23:45;101816.94;;;-7.25;67.05
80382;BME280;69692;55.820;37.490;2023-12-07T04:26:11;101822.31;;;-7.28;67.07
80382;BME280;69692;55.820;37.490;2023-12-07T04:28:37;101829.84;;;-7.42;67.57
80382;BME280;69692;55.820;37.490;2023-12-07T04:31:03;101834.34;;;-7.45;67.68
80382;BME280;69692;55.820;37.490;2023-12-07T04:33:29;101833.91;;;-7.35;67.59
80382;BME280;69692;55.820;37.490;2023-12-07T04:35:55;101835.97;;;-7.21;67.48
80382;BME280;69692;55.820;37.490;2023-12-07T04:38:21;101834.47;;;-7.06;66.79
80382;BME280;69692;55.820;37.490;2023-12-07T04:40:47;101824.88;;;-7.06;66.95
80382;BME280;69692;55.820;37.490;2023-12-07T04:43:14;101838.00;;;-7.07;66.52
80382;BME280;69692;55.820;37.490;2023-12-07T04:45:40;101842.47;;;-7.09;66.90
80382;BME280;69692;55.820;37.490;2023-12-07T04:48:05;101846.91;;;-7.11;66.82
80382;BME280;69692;55.820;37.490;2023-12-07T04:50:31;101843.38;;;-7.10;66.44
80382;BME280;69692;55.820;37.490;2023-12-07T04:52:57;101848.34;;;-7.04;66.62
80382;BME280;69692;55.820;37.490;2023-12-07T04:55:23;101847.69;;;-7.09;66.12
80382;BME280;69692;55.820;37.490;2023-12-07T04:57:49;101849.31;;;-7.07;66.44
80382;BME280;69692;55.820;37.490;2023-12-07T05:00:15;101854.19;;;-6.98;66.29
80382;BME280;69692;55.820;37.490;2023-12-07T05:02:42;101855.28;;;-7.03;66.16
80382;BME280;69692;55.820;37.490;2023-12-07T05:05:08;101850.88;;;-7.03;66.11
80382;BME280;69692;55.820;37.490;2023-12-07T05:07:34;101849.09;;;-7.23;66.10
80382;BME280;69692;55.820;37.490;2023-12-07T05:10:00;101852.94;;;-7.53;66.81
80382;BME280;69692;55.820;37.490;2023-12-07T05:12:26;101858.63;;;-7.42;67.40
80382;BME280;69692;55.820;37.490;2023-12-07T05:14:52;101865.16;;;-7.32;67.41
80382;BME280;69692;55.820;37.490;2023-12-07T05:17:18;101872.34;;;-7.37;67.39
80382;BME280;69692;55.820;37.490;2023-12-07T05:19:44;101870.22;;;-7.27;66.98
80382;BME280;69692;55.820;37.490;2023-12-07T05:22:10;101874.59;;;-7.28;67.14
80382;BME280;69692;55.820;37.490;2023-12-07T05:24:36;101873.69;;;-7.27;66.77
80382;BME280;69692;55.820;37.490;2023-12-07T05:27:03;101881.34;;;-7.22;66.67
80382;BME280;69692;55.820;37.490;2023-12-07T05:29:29;101886.25;;;-7.14;66.36
80382;BME280;69692;55.820;37.490;2023-12-07T05:31:56;101881.94;;;-7.15;66.30
80382;BME280;69692;55.820;37.490;2023-12-07T05:34:22;101885.91;;;-7.27;66.65
80382;BME280;69692;55.820;37.490;2023-12-07T05:36:48;101886.81;;;-7.28;66.65
80382;BME280;69692;55.820;37.490;2023-12-07T05:39:14;101887.56;;;-7.25;66.93
80382;BME280;69692;55.820;37.490;2023-12-07T05:41:40;101884.25;;;-7.30;66.91
80382;BME280;69692;55.820;37.490;2023-12-07T05:44:06;101888.47;;;-7.26;66.82
80382;BME280;69692;55.820;37.490;2023-12-07T05:46:32;101893.81;;;-7.29;66.89
80382;BME280;69692;55.820;37.490;2023-12-07T05:49:00;101893.06;;;-7.32;66.70
80382;BME280;69692;55.820;37.490;2023-12-07T05:51:26;101898.22;;;-7.31;66.94
80382;BME280;69692;55.820;37.490;2023-12-07T05:53:52;101900.84;;;-7.31;66.89
80382;BME280;69692;55.820;37.490;2023-12-07T05:56:22;101899.50;;;-7.19;67.44
80382;BME280;69692;55.820;37.490;2023-12-07T05:58:48;101900.84;;;-7.09;66.66
80382;BME280;69692;55.820;37.490;2023-12-07T06:01:18;101899.81;;;-7.05;66.77
80382;BME280;69692;55.820;37.490;2023-12-07T06:03:46;101892.88;;;-7.06;66.36
80382;BME280;69692;55.820;37.490;2023-12-07T06:06:12;101898.66;;;-7.19;66.61
80382;BME280;69692;55.820;37.490;2023-12-07T06:08:38;101901.22;;;-7.40;67.00
80382;BME280;69692;55.820;37.490;2023-12-07T06:11:04;101909.66;;;-7.55;67.28
80382;BME280;69692;55.820;37.490;2023-12-07T06:13:31;101920.66;;;-7.69;68.17
80382;BME280;69692;55.820;37.490;2023-12-07T06:15:57;101923.25;;;-7.69;67.76
80382;BME280;69692;55.820;37.490;2023-12-07T06:18:23;101926.78;;;-7.70;68.28
80382;BME280;69692;55.820;37.490;2023-12-07T06:20:49;101923.75;;;-7.59;68.63
80382;BME280;69692;55.820;37.490;2023-12-07T06:23:15;101917.44;;;-7.54;68.32
80382;BME280;69692;55.820;37.490;2023-12-07T06:25:41;101921.88;;;-7.56;67.61
80382;BME280;69692;55.820;37.490;2023-12-07T06:28:07;101915.50;;;-7.48;67.48
80382;BME280;69692;55.820;37.490;2023-12-07T06:30:33;101915.09;;;-7.38;67.68
80382;BME280;69692;55.820;37.490;2023-12-07T06:33:01;101922.34;;;-7.23;67.73
80382;BME280;69692;55.820;37.490;2023-12-07T06:35:27;101923.78;;;-7.15;67.16
80382;BME280;69692;55.820;37.490;2023-12-07T06:37:53;101926.53;;;-7.18;66.64
80382;BME280;69692;55.820;37.490;2023-12-07T06:40:19;101919.41;;;-7.15;67.09
80382;BME280;69692;55.820;37.490;2023-12-07T06:42:46;101914.16;;;-7.15;66.76
80382;BME280;69692;55.820;37.490;2023-12-07T06:45:14;101913.22;;;-7.12;66.22
80382;BME280;69692;55.820;37.490;2023-12-07T06:47:41;101909.00;;;-7.16;66.38
80382;BME280;69692;55.820;37.490;2023-12-07T06:50:10;101915.00;;;-7.14;65.90
80382;BME280;69692;55.820;37.490;2023-12-07T06:52:37;101919.53;;;-7.18;65.28
80382;BME280;69692;55.820;37.490;2023-12-07T06:55:03;101919.22;;;-7.32;66.03
80382;BME280;69692;55.820;37.490;2023-12-07T06:57:31;101921.44;;;-7.45;66.43
80382;BME280;69692;55.820;37.490;2023-12-07T06:59:58;101927.53;;;-7.44;66.37
80382;BME280;69692;55.820;37.490;2023-12-07T07:02:24;101932.63;;;-7.63;66.13
80382;BME280;69692;55.820;37.490;2023-12-07T07:04:50;101926.78;;;-7.70;66.77
80382;BME280;69692;55.820;37.490;2023-12-07T07:07:16;101927.00;;;-7.76;66.77
80382;BME280;69692;55.820;37.490;2023-12-07T07:09:42;101933.31;;;-7.82;66.71
80382;BME280;69692;55.820;37.490;2023-12-07T07:12:08;101938.34;;;-7.77;66.65
80382;BME280;69692;55.820;37.490;2023-12-07T07:14:35;101942.97;;;-7.84;66.90
80382;BME280;69692;55.820;37.490;2023-12-07T07:17:01;101944.56;;;-7.79;66.73
80382;BME280;69692;55.820;37.490;2023-12-07T07:19:27;101933.75;;;-7.94;67.10
80382;BME280;69692;55.820;37.490;2023-12-07T07:21:53;101936.72;;;-8.03;67.04
80382;BME280;69692;55.820;37.490;2023-12-07T07:24:19;101932.06;;;-7.95;66.87
80382;BME280;69692;55.820;37.490;2023-12-07T07:26:44;101942.78;;;-8.02;66.93
80382;BME280;69692;55.820;37.490;2023-12-07T07:29:10;101934.84;;;-7.99;67.89
80382;BME280;69692;55.820;37.490;2023-12-07T07:31:36;101940.47;;;-7.87;67.36
80382;BME280;69692;55.820;37.490;2023-12-07T07:34:02;101942.91;;;-7.82;66.98
80382;BME280;69692;55.820;37.490;2023-12-07T07:36:28;101942.66;;;-7.76;66.12
80382;BME280;69692;55.820;37.490;2023-12-07T07:38:55;101946.47;;;-7.61;66.11
80382;BME280;69692;55.820;37.490;2023-12-07T07:41:21;101935.34;;;-7.43;66.21
80382;BME280;69692;55.820;37.490;2023-12-07T07:43:47;101944.22;;;-7.25;65.05
80382;BME280;69692;55.820;37.490;2023-12-07T07:46:14;101944.28;;;-7.27;65.17
80382;BME280;69692;55.820;37.490;2023-12-07T07:48:40;101943.06;;;-7.18;65.47
80382;BME280;69692;55.820;37.490;2023-12-07T07:51:06;101944.09;;;-7.00;64.65
80382;BME280;69692;55.820;37.490;2023-12-07T07:53:32;101948.03;;;-6.90;63.38
80382;BME280;69692;55.820;37.490;2023-12-07T07:55:58;101949.63;;;-6.86;63.66
80382;BME280;69692;55.820;37.490;2023-12-07T07:58:24;101941.31;;;-6.96;63.48
80382;BME280;69692;55.820;37.490;2023-12-07T08:00:50;101945.72;;;-6.76;63.57
80382;BME280;69692;55.820;37.490;2023-12-07T08:03:17;101949.88;;;-6.92;63.07
80382;BME280;69692;55.820;37.490;2023-12-07T08:05:44;101950.53;;;-6.87;62.98
80382;BME280;69692;55.820;37.490;2023-12-07T08:08:10;101948.91;;;-6.89;63.12
80382;BME280;69692;55.820;37.490;2023-12-07T08:10:36;101954.31;;;-6.94;62.87
80382;BME280;69692;55.820;37.490;2023-12-07T08:13:02;101953.03;;;-7.06;63.29
80382;BME280;69692;55.820;37.490;2023-12-07T08:15:27;101957.13;;;-7.21;63.41
80382;BME280;69692;55.820;37.490;2023-12-07T08:17:53;101956.63;;;-7.08;63.64
80382;BME280;69692;55.820;37.490;2023-12-07T08:20:21;101954.56;;;-7.22;63.37
80382;BME280;69692;55.820;37.490;2023-12-07T08:22:47;101954.16;;;-7.11;63.05
80382;BME280;69692;55.820;37.490;2023-12-07T08:25:12;101956.13;;;-7.18;63.42
80382;BME280;69692;55.820;37.490;2023-12-07T08:27:39;101961.75;;;-7.05;63.10
80382;BME280;69692;55.820;37.490;2023-12-07T08:30:06;101950.63;;;-7.10;62.90
80382;BME280;69692;55.820;37.490;2023-12-07T08:32:35;101948.47;;;-7.23;62.84
80382;BME280;69692;55.820;37.490;2023-12-07T08:35:01;101961.97;;;-7.33;63.32
80382;BME280;69692;55.820;37.490;2023-12-07T08:37:29;101954.56;;;-7.22;62.96
80382;BME280;69692;55.820;37.490;2023-12-07T08:39:55;101955.75;;;-7.31;63.12
80382;BME280;69692;55.820;37.490;2023-12-07T08:42:21;101955.13;;;-7.14;62.93
80382;BME280;69692;55.820;37.490;2023-12-07T08:44:47;101946.19;;;-7.08;62.70
80382;BME280;69692;55.820;37.490;2023-12-07T08:47:13;101942.47;;;-7.25;62.71
80382;BME280;69692;55.820;37.490;2023-12-07T08:49:39;101946.75;;;-7.45;63.27
80382;BME280;69692;55.820;37.490;2023-12-07T08:52:05;101949.53;;;-7.50;63.15
80382;BME280;69692;55.820;37.490;2023-12-07T08:54:32;101934.31;;;-7.39;63.37
80382;BME280;69692;55.820;37.490;2023-12-07T08:56:58;101944.28;;;-7.27;62.99
80382;BME280;69692;55.820;37.490;2023-12-07T08:59:24;101944.44;;;-7.31;63.27
80382;BME280;69692;55.820;37.490;2023-12-07T09:01:49;101946.97;;;-7.28;62.82
80382;BME280;69692;55.820;37.490;2023-12-07T09:04:15;101938.56;;;-7.36;62.93
80382;BME280;69692;55.820;37.490;2023-12-07T09:06:41;101943.72;;;-7.35;63.14
80382;BME280;69692;55.820;37.490;2023-12-07T09:09:07;101938.88;;;-7.22;63.48
80382;BME280;69692;55.820;37.490;2023-12-07T09:11:33;101941.06;;;-7.11;62.47
80382;BME280;69692;55.820;37.490;2023-12-07T09:13:59;101935.34;;;-6.99;61.93
80382;BME280;69692;55.820;37.490;2023-12-07T09:16:26;101937.91;;;-6.98;62.30
80382;BME280;69692;55.820;37.490;2023-12-07T09:18:52;101930.97;;;-6.99;62.14
80382;BME280;69692;55.820;37.490;2023-12-07T09:21:18;101941.13;;;-7.13;61.74
80382;BME280;69692;55.820;37.490;2023-12-07T09:23:44;101934.38;;;-7.40;62.25
80382;BME280;69692;55.820;37.490;2023-12-07T09:26:10;101934.38;;;-7.18;62.59
80382;BME280;69692;55.820;37.490;2023-12-07T09:28:36;101931.91;;;-7.01;62.32
80382;BME280;69692;55.820;37.490;2023-12-07T09:31:04;101935.75;;;-7.32;62.25
80382;BME280;69692;55.820;37.490;2023-12-07T09:33:30;101944.19;;;-7.47;63.07
80382;BME280;69692;55.820;37.490;2023-12-07T09:35:55;101934.97;;;-7.34;62.99
80382;BME280;69692;55.820;37.490;2023-12-07T09:38:21;101944.94;;;-7.43;62.71
80382;BME280;69692;55.820;37.490;2023-12-07T09:40:51;101947.84;;;-7.51;63.43
80382;BME280;69692;55.820;37.490;2023-12-07T09:43:17;101946.09;;;-7.97;64.42
80382;BME280;69692;55.820;37.490;2023-12-07T09:45:44;101942.03;;;-8.06;64.46
80382;BME280;69692;55.820;37.490;2023-12-07T09:48:10;101940.50;;;-8.12;65.06
80382;BME280;69692;55.820;37.490;2023-12-07T09:50:36;101937.22;;;-7.93;65.40
80382;BME280;69692;55.820;37.490;2023-12-07T09:53:03;101933.31;;;-7.82;65.05
80382;BME280;69692;55.820;37.490;2023-12-07T09:55:28;101935.47;;;-7.69;64.17
80382;BME280;69692;55.820;37.490;2023-12-07T09:57:56;101942.03;;;-7.59;63.22
80382;BME280;69692;55.820;37.490;2023-12-07T10:00:24;101942.63;;;-7.74;63.77
80382;BME280;69692;55.820;37.490;2023-12-07T10:02:50;101943.31;;;-7.69;63.63
80382;BME280;69692;55.820;37.490;2023-12-07T10:05:16;101937.13;;;-7.67;64.01
80382;BME280;69692;55.820;37.490;2023-12-07T10:07:44;101936.59;;;-7.53;63.87
80382;BME280;69692;55.820;37.490;2023-12-07T10:10:14;101945.88;;;-7.46;62.73
80382;BME280;69692;55.820;37.490;2023-12-07T10:15:17;101938.91;;;-7.45;62.68
80382;BME280;69692;55.820;37.490;2023-12-07T10:17:52;101947.03;;;-7.76;62.94
80382;BME280;69692;55.820;37.490;2023-12-07T10:20:20;101949.50;;;-7.72;63.11
80382;BME280;69692;55.820;37.490;2023-12-07T10:25:32;101937.78;;;-7.38;62.33
80382;BME280;69692;55.820;37.490;2023-12-07T10:27:58;101947.16;;;-7.79;63.32
80382;BME280;69692;55.820;37.490;2023-12-07T10:30:24;101948.66;;;-7.72;63.21
80382;BME280;69692;55.820;37.490;2023-12-07T10:32:56;101949.88;;;-7.59;62.94
80382;BME280;69692;55.820;37.490;2023-12-07T10:35:22;101956.25;;;-7.66;62.53
80382;BME280;69692;55.820;37.490;2023-12-07T10:37:48;101952.78;;;-7.67;63.01
80382;BME280;69692;55.820;37.490;2023-12-07T10:40:14;101950.34;;;-7.71;62.76
80382;BME280;69692;55.820;37.490;2023-12-07T10:42:41;101944.44;;;-7.53;62.46
80382;BME280;69692;55.820;37.490;2023-12-07T10:45:07;101953.03;;;-7.73;62.56
80382;BME280;69692;55.820;37.490;2023-12-07T10:47:38;101955.00;;;-7.56;63.90
80382;BME280;69692;55.820;37.490;2023-12-07T10:50:08;101954.09;;;-7.55;62.29
80382;BME280;69692;55.820;37.490;2023-12-07T10:52:41;101950.44;;;-7.51;62.02
80382;BME280;69692;55.820;37.490;2023-12-07T10:55:30;101954.69;;;-7.70;62.64
80382;BME280;69692;55.820;37.490;2023-12-07T10:58:01;101961.41;;;-7.65;62.88
80382;BME280;69692;55.820;37.490;2023-12-07T11:00:29;101958.53;;;-7.57;62.87
80382;BME280;69692;55.820;37.490;2023-12-07T11:02:55;101962.00;;;-7.80;63.55
80382;BME280;69692;55.820;37.490;2023-12-07T11:05:21;101951.09;;;-7.68;63.72
80382;BME280;69692;55.820;37.490;2023-12-07T11:08:06;101954.09;;;-7.55;63.40
80382;BME280;69692;55.820;37.490;2023-12-07T11:10:43;101963.06;;;-7.39;63.43
80382;BME280;69692;55.820;37.490;2023-12-07T11:13:33;101952.19;;;-7.28;62.81
80382;BME280;69692;55.820;37.490;2023-12-07T11:16:01;101958.50;;;-7.34;62.80
80382;BME280;69692;55.820;37.490;2023-12-07T11:18:28;101950.53;;;-7.31;63.14
80382;BME280;69692;55.820;37.490;2023-12-07T11:20:55;101948.66;;;-7.27;62.63
80382;BME280;69692;55.820;37.490;2023-12-07T11:23:21;101951.63;;;-7.14;62.54
80382;BME280;69692;55.820;37.490;2023-12-07T11:25:48;101962.09;;;-7.14;62.89
80382;BME280;69692;55.820;37.490;2023-12-07T11:28:15;101962.94;;;-7.36;62.32
80382;BME280;69692;55.820;37.490;2023-12-07T11:30:44;101961.94;;;-7.55;62.42
80382;BME280;69692;55.820;37.490;2023-12-07T11:33:10;101960.16;;;-7.78;63.71
80382;BME280;69692;55.820;37.490;2023-12-07T11:38:30;101962.66;;;-7.52;64.29
80382;BME280;69692;55.820;37.490;2023-12-07T11:40:56;101960.56;;;-7.42;63.29
80382;BME280;69692;55.820;37.490;2023-12-07T11:45:57;101959.88;;;-7.47;64.02
80382;BME280;69692;55.820;37.490;2023-12-07T11:48:23;101960.50;;;-7.64;63.06
80382;BME280;69692;55.820;37.490;2023-12-07T11:53:30;101971.47;;;-7.77;63.83
80382;BME280;69692;55.820;37.490;2023-12-07T11:55:58;101960.13;;;-8.00;64.69
80382;BME280;69692;55.820;37.490;2023-12-07T11:58:25;101961.47;;;-7.90;65.38
80382;BME280;69692;55.820;37.490;2023-12-07T12:00:52;101973.19;;;-7.76;65.03
80382;BME280;69692;55.820;37.490;2023-12-07T12:03:18;101955.34;;;-7.65;64.76
80382;BME280;69692;55.820;37.490;2023-12-07T12:05:45;101968.16;;;-7.58;64.97
80382;BME280;69692;55.820;37.490;2023-12-07T12:08:11;101965.13;;;-7.70;64.63
80382;BME280;69692;55.820;37.490;2023-12-07T12:10:39;101965.88;;;-7.67;64.19
80382;BME280;69692;55.820;37.490;2023-12-07T12:13:05;101969.44;;;-7.69;64.63
80382;BME280;69692;55.820;37.490;2023-12-07T12:15:32;101964.28;;;-7.71;65.04
80382;BME280;69692;55.820;37.490;2023-12-07T12:17:58;101966.78;;;-7.68;64.69
80382;BME280;69692;55.820;37.490;2023-12-07T12:20:25;101962.72;;;-7.76;64.61
80382;BME280;69692;55.820;37.490;2023-12-07T12:22:52;101964.34;;;-7.72;64.79
80382;BME280;69692;55.820;37.490;2023-12-07T12:25:26;101970.34;;;-7.70;64.42
80382;BME280;69692;55.820;37.490;2023-12-07T12:27:59;101969.03;;;-7.82;64.76
80382;BME280;69692;55.820;37.490;2023-12-07T12:30:27;101965.56;;;-7.83;64.80
80382;BME280;69692;55.820;37.490;2023-12-07T12:32:55;101969.56;;;-7.72;65.28
80382;BME280;69692;55.820;37.490;2023-12-07T12:35:21;101963.84;;;-7.60;64.59
80382;BME280;69692;55.820;37.490;2023-12-07T12:37:49;101962.72;;;-7.53;63.98
80382;BME280;69692;55.820;37.490;2023-12-07T12:40:17;101965.75;;;-7.64;64.48
80382;BME280;69692;55.820;37.490;2023-12-07T12:42:50;101970.00;;;-7.61;64.35
80382;BME280;69692;55.820;37.490;2023-12-07T12:45:17;101976.97;;;-7.62;64.77
80382;BME280;69692;55.820;37.490;2023-12-07T12:47:47;101964.22;;;-7.69;64.22
80382;BME280;69692;55.820;37.490;2023-12-07T12:50:37;101965.94;;;-7.93;64.09
80382;BME280;69692;55.820;37.490;2023-12-07T12:53:04;101969.88;;;-7.82;64.60